Flight Track Log - Related Links

Times and Time Zones

All times are in EDT time to prevent confusion due to time zone crossing. See the LOF3416 flight status page for this flight to view local times or setup timezone preferences in your user account.

Time Position Orientation Groundspeed Altitude Reporting Facility
EDT Latitude Longitude Course Direction KTS MPH feet Rate Location/Type
Thu 12:23:28 AM 38.9500 -77.5333 263° West 196 226 1,700  Level Potomac TRACON
Thu 12:24:38 AM 38.9397 -77.6358 263° West 220 253 4,000 2,169 Climbing Washington Center
Thu 12:25:38 AM 38.9217 -77.7128 253° West 243 280 6,400 2,400 Climbing Washington Center
Thu 12:26:38 AM 38.9056 -77.8111 258° West 252 290 8,800 1,900 Climbing Washington Center
Thu 12:27:38 AM 38.9161 -77.9019 279° West 271 312 10,200 1,450 Climbing Washington Center
Thu 12:28:38 AM 38.9308 -78.0092 280° West 298 343 11,700 1,350 Climbing Washington Center
Thu 12:29:38 AM 38.9472 -78.1244 280° West 321 369 12,900 1,050 Climbing Washington Center
Thu 12:30:38 AM 38.9611 -78.2506 278° West 340 391 13,800 900 Climbing Washington Center
Thu 12:31:38 AM 38.9664 -78.3842 273° West 367 422 14,700 950 Climbing Washington Center
Thu 12:32:38 AM 38.9717 -78.5206 273° West 379 436 15,700 1,000 Climbing Washington Center
Thu 12:33:38 AM 38.9744 -78.6594 272° West 389 448 16,700 1,050 Climbing Washington Center
Thu 12:34:38 AM 38.9792 -78.7906 273° West 383 441 17,800 1,150 Climbing Washington Center
Thu 12:35:38 AM 38.9819 -78.9269 272° West 383 441 19,000 1,240 Climbing Washington Center
Thu 12:36:39 AM 38.9864 -79.0608 272° West 383 441 20,300 1,350 Climbing Washington Center
Thu 12:37:38 AM 38.9886 -79.1944 271° West 383 441 21,700 1,311 Climbing Washington Center
Thu 12:38:38 AM 38.9928 -79.3333 272° West 388 447 22,900 1,050 Climbing Washington Center
Thu 12:39:38 AM 38.9969 -79.4672 272° West 383 441 23,800 950 Climbing Washington Center
Thu 12:40:38 AM 38.9981 -79.6250 271° West 396 456 24,800 950 Climbing Washington Center
Thu 12:41:38 AM 39.0014 -79.7692 272° West 402 463 25,700 900 Climbing Washington Center
Thu 12:42:38 AM 39.0033 -79.8922 271° West 402 463 26,600 900 Climbing Washington Center
Thu 12:43:38 AM 39.0044 -80.0286 271° West 402 463 27,500 613 Climbing Washington Center
Thu 12:44:55 AM 39.0053 -80.2069 270° West 392 451 28,000 217 Climbing Indianapolis Center
Thu 12:45:56 AM 39.0239 -80.3500 280° West 414 476 28,000  Level Indianapolis Center
Thu 12:46:56 AM 39.0558 -80.4917 286° West 417 480 28,000  Level Indianapolis Center
Thu 12:47:57 AM 39.0922 -80.6350 288° West 424 488 28,000  Level Indianapolis Center
Thu 12:48:57 AM 39.1275 -80.7806 287° West 426 490 28,000  Level Indianapolis Center
Thu 12:49:58 AM 39.1631 -80.9275 287° West 431 496 28,000  Level Indianapolis Center
Thu 12:50:58 AM 39.1989 -81.0753 287° West 432 497 28,000  Level Indianapolis Center
Thu 12:51:59 AM 39.2347 -81.2247 287° West 438 504 28,000  Level Indianapolis Center
Thu 12:52:59 AM 39.2706 -81.3736 287° West 439 505 28,000  Level Indianapolis Center
Thu 12:54:00 AM 39.3050 -81.5222 287° West 437 503 28,000  Level Indianapolis Center
Thu 12:55:00 AM 39.3403 -81.6711 287° West 435 501 28,000  Level Indianapolis Center
Thu 12:56:01 AM 39.3756 -81.8214 287° West 438 504 28,000  Level Indianapolis Center
Thu 12:57:01 AM 39.4158 -82.0003 286° West 435 501 28,000  Level Indianapolis Center
Thu 12:58:02 AM 39.4475 -82.1383 287° West 435 501 28,000  Level Indianapolis Center
Thu 12:59:02 AM 39.4822 -82.2889 287° West 433 498 28,000  Level Indianapolis Center
Thu 01:00:02 AM 39.5167 -82.4408 286° West 436 502 28,000 -744 Level Indianapolis Center
Thu 01:01:03 AM 39.5500 -82.5931 286° West 435 501 26,500 -1,785 Descending Indianapolis Center
Thu 01:02:03 AM 39.5844 -82.7419 287° West 429 494 24,400 -2,083 Descending Indianapolis Center
Thu 01:03:04 AM 39.6169 -82.8900 286° West 424 488 22,300 -2,083 Descending Indianapolis Center
Thu 01:04:04 AM 39.6475 -83.0311 286° West 406 467 20,200 -2,132 Descending Indianapolis Center
Thu 01:05:05 AM 39.6772 -83.1669 286° West 389 448 18,000 -2,083 Descending Indianapolis Center
Thu 01:06:05 AM 39.7067 -83.3031 286° West 387 445 16,000 -2,067 Descending Indianapolis Center
Thu 01:07:04 AM 39.7356 -83.4358 286° West 372 428 13,900 -1,952 Descending Indianapolis Center
Thu 01:07:28 AM 39.7467 -83.4833 287° West 364 419 13,300 -1,452 Descending Indianapolis Center
Thu 01:08:06 AM 39.7642 -83.5683 285° West 366 421 12,400 -1,279 Descending Indianapolis Center
Thu 01:08:29 AM 39.7747 -83.6169 286° West 362 417 12,000 -1,000 Descending Indianapolis Center
Thu 01:09:06 AM 39.7844 -83.6753 282° West 359 413 11,400 -1,200 Descending Indianapolis Center
Thu 01:09:29 AM 39.7928 -83.7386 280° West 309 356 10,800 -1,475 Descending Indianapolis Center
Thu 01:10:07 AM 39.7992 -83.7861 280° West 315 362 9,900 -1,967 Descending Indianapolis Center
Thu 01:10:30 AM 39.8083 -83.8383 283° West 279 321 8,800 -2,200 Descending Indianapolis Center
Thu 01:11:07 AM 39.8164 -83.8831 283° West 283 326 7,700 -2,066 Descending Indianapolis Center
Thu 01:11:31 AM 39.8244 -83.9300 283° West 258 297 6,700 -2,164 Descending Indianapolis Center
Thu 01:12:08 AM 39.8328 -83.9725 284° West 257 296 5,500 -1,900 Descending Indianapolis Center
Thu 01:12:31 AM 39.8386 -84.0189 279° West 250 288 4,800 -1,300 Descending Indianapolis Center
Thu 01:13:08 AM 39.8478 -84.0606 286° West 250 288 4,200 -787 Descending Indianapolis Center
Thu 01:13:32 AM 39.8550 -84.1053 282° West 246 283 4,000 -689 Descending Indianapolis Center
Thu 01:14:09 AM 39.8619 -84.1472 282° West 246 283 3,500 -300 Descending Indianapolis Center
Thu 01:14:32 AM 39.8489 -84.1833 245° Southwest 203 234 3,700 -100 Climbing Indianapolis Center
Thu 01:15:09 AM 39.8353 -84.2122 238° Southwest 212 244 3,400 -393 Descending Indianapolis Center
Thu 01:15:33 AM 39.8194 -84.2364 230° Southwest 169 194 3,300 -200 Descending Indianapolis Center
Thu 01:16:09 AM 39.8061 -84.2622 236° Southwest 188 216 3,200 -295 Descending Indianapolis Center
Thu 01:16:34 AM 39.8197 -84.2881 304° West 183 211 3,000 -885 Descending Indianapolis Center
Thu 01:17:10 AM 39.8458 -84.2983 343° North 199 229 2,300 -1,100 Descending Indianapolis Center
Thu 01:17:34 AM 39.8669 -84.2972 North 179 206 1,900 -600 Descending Indianapolis Center
Thu 01:18:10 AM 39.8817 -84.2661 58° Northeast 177 204 1,700 -689 Descending Indianapolis Center
Thu 01:18:35 AM 39.8914 -84.2542 43° Northeast 133 153 1,200 -1,200 Descending Indianapolis Center

Login

Don't have an account? Register now (free) for customized features, flight alerts, and more!